createdAt,value
2018-05-27T00:00:25.111Z,17.04
2018-05-27T00:01:25.115Z,17.05
2018-05-27T00:02:25.026Z,16.99
2018-05-27T00:03:24.979Z,17.01
2018-05-27T00:04:24.934Z,16.97
2018-05-27T00:05:24.889Z,16.99
2018-05-27T00:06:24.886Z,16.90
2018-05-27T00:07:24.800Z,17.01
2018-05-27T00:08:24.760Z,16.91
2018-05-27T00:09:24.715Z,16.90
2018-05-27T00:10:24.676Z,16.87
2018-05-27T00:11:24.656Z,16.79
2018-05-27T00:12:24.585Z,16.79
2018-05-27T00:13:24.540Z,16.74
2018-05-27T00:14:24.528Z,16.71
2018-05-27T00:15:24.446Z,16.66
2018-05-27T00:16:24.413Z,16.60
2018-05-27T00:17:24.369Z,16.54
2018-05-27T00:18:24.316Z,16.47
2018-05-27T00:19:24.304Z,16.54
2018-05-27T00:20:24.225Z,16.53
2018-05-27T00:21:24.189Z,16.58
2018-05-27T00:22:24.139Z,16.57
2018-05-27T00:23:24.090Z,16.58
2018-05-27T00:24:24.087Z,16.60
2018-05-27T00:25:24.001Z,16.56
2018-05-27T00:26:23.964Z,16.54
2018-05-27T00:27:23.913Z,16.56
2018-05-27T00:28:23.910Z,16.61
2018-05-27T00:29:23.823Z,16.56
2018-05-27T00:30:23.785Z,16.56
2018-05-27T00:31:23.775Z,16.39
2018-05-27T00:32:23.716Z,16.47
2018-05-27T00:33:23.649Z,16.38
2018-05-27T00:34:23.607Z,16.24
2018-05-27T00:35:23.555Z,16.13
2018-05-27T00:36:23.567Z,16.24
2018-05-27T00:37:23.465Z,16.21
2018-05-27T00:38:23.427Z,16.35
2018-05-27T00:39:23.380Z,16.28
2018-05-27T00:40:23.340Z,16.13
2018-05-27T00:41:23.330Z,16.17
2018-05-27T00:42:23.252Z,16.17
2018-05-27T00:43:23.197Z,16.35
2018-05-27T00:44:23.154Z,16.35
2018-05-27T00:45:23.110Z,16.29
2018-05-27T00:46:23.116Z,16.16
2018-05-27T00:47:23.020Z,16.26
2018-05-27T00:48:22.973Z,16.20
2018-05-27T00:49:22.929Z,16.15
2018-05-27T00:50:22.884Z,16.13
2018-05-27T00:51:22.874Z,16.09
2018-05-27T00:52:22.837Z,16.00
2018-05-27T00:53:22.751Z,16.04
2018-05-27T00:54:22.705Z,16.04
2018-05-27T00:55:22.659Z,16.01
2018-05-27T00:56:22.623Z,16.09
2018-05-27T00:57:22.607Z,16.12
2018-05-27T00:58:22.525Z,16.04
2018-05-27T00:59:22.481Z,16.12
2018-05-27T01:00:22.435Z,16.00
2018-05-27T01:01:22.428Z,16.08
2018-05-27T01:02:22.348Z,15.94
2018-05-27T01:03:22.332Z,15.94
2018-05-27T01:04:22.258Z,15.95
2018-05-27T01:05:22.211Z,15.91
2018-05-27T01:06:22.213Z,15.95
2018-05-27T01:07:22.122Z,15.92
2018-05-27T01:08:22.091Z,15.94
2018-05-27T01:09:22.064Z,15.90
2018-05-27T01:10:21.988Z,15.90
2018-05-27T01:11:21.941Z,15.83
2018-05-27T01:12:21.895Z,15.86
2018-05-27T01:13:21.887Z,15.88
2018-05-27T01:14:21.809Z,15.77
2018-05-27T01:15:21.761Z,15.75
2018-05-27T01:16:21.716Z,15.75
2018-05-27T01:17:21.705Z,15.72
2018-05-27T01:18:21.656Z,15.72
2018-05-27T01:19:21.579Z,15.64
2018-05-27T01:20:21.537Z,15.59
2018-05-27T01:21:21.493Z,15.61
2018-05-27T01:22:21.445Z,15.57
2018-05-27T01:23:21.432Z,15.57
2018-05-27T01:24:21.357Z,15.70
2018-05-27T01:25:21.316Z,15.64
2018-05-27T01:26:21.266Z,15.54
2018-05-27T01:27:21.220Z,15.54
2018-05-27T01:28:21.205Z,15.68
2018-05-27T01:29:21.134Z,15.72
2018-05-27T01:30:21.116Z,15.57
2018-05-27T01:31:21.071Z,15.68
2018-05-27T01:32:20.992Z,15.64
2018-05-27T01:33:20.951Z,15.51
2018-05-27T01:34:20.901Z,15.36
2018-05-27T01:35:20.900Z,15.39
2018-05-27T01:36:20.819Z,15.18
2018-05-27T01:37:20.772Z,15.25
2018-05-27T01:38:20.721Z,15.22
2018-05-27T01:39:20.677Z,15.24
2018-05-27T01:40:20.664Z,15.24
2018-05-27T01:41:20.592Z,15.25
2018-05-27T01:42:20.544Z,15.31
2018-05-27T01:43:20.493Z,15.21
2018-05-27T01:44:20.445Z,15.09
2018-05-27T01:45:20.435Z,15.22
2018-05-27T01:46:20.394Z,15.15
2018-05-27T01:47:20.309Z,15.11
2018-05-27T01:48:20.268Z,15.18
2018-05-27T01:49:20.219Z,15.15
2018-05-27T01:50:20.174Z,15.18
2018-05-27T01:51:20.163Z,15.04
2018-05-27T01:52:20.084Z,14.99
2018-05-27T01:53:20.068Z,15.02
2018-05-27T01:54:20.000Z,14.96
2018-05-27T01:55:19.944Z,15.04
2018-05-27T01:56:19.930Z,15.02
2018-05-27T01:57:19.854Z,15.06
2018-05-27T01:58:19.819Z,15.04
2018-05-27T01:59:19.797Z,15.02
2018-05-27T02:00:19.751Z,15.04
2018-05-27T02:01:19.683Z,15.09
2018-05-27T02:02:19.634Z,15.02
2018-05-27T02:03:19.579Z,15.21
2018-05-27T02:04:19.534Z,15.04
2018-05-27T02:05:19.523Z,15.06
2018-05-27T02:06:19.478Z,14.96
2018-05-27T02:07:19.400Z,14.89
2018-05-27T02:08:19.351Z,14.85
2018-05-27T02:09:19.348Z,14.86
2018-05-27T02:10:19.260Z,14.79
2018-05-27T02:11:19.218Z,14.77
2018-05-27T02:12:19.166Z,14.78
2018-05-27T02:13:19.126Z,14.86
2018-05-27T02:14:19.111Z,14.82
2018-05-27T02:15:19.030Z,14.72
2018-05-27T02:16:18.985Z,14.91
2018-05-27T02:17:18.968Z,14.85
2018-05-27T02:18:18.896Z,14.84
2018-05-27T02:19:18.852Z,14.91
2018-05-27T02:20:19.330Z,14.88
2018-05-27T02:21:18.788Z,14.91
2018-05-27T02:22:18.713Z,14.84
2018-05-27T02:23:18.663Z,14.78
2018-05-27T02:24:18.617Z,14.79
2018-05-27T02:25:18.577Z,14.88
2018-05-27T02:26:18.571Z,14.88
2018-05-27T02:27:18.479Z,14.86
2018-05-27T02:28:18.438Z,14.96
2018-05-27T02:29:18.422Z,15.00
2018-05-27T02:30:18.343Z,14.96
2018-05-27T02:31:18.322Z,14.94
2018-05-27T02:32:18.249Z,15.03
2018-05-27T02:33:18.238Z,15.02
2018-05-27T02:34:18.162Z,15.02
2018-05-27T02:35:18.113Z,15.04
2018-05-27T02:36:18.073Z,15.03
2018-05-27T02:37:18.025Z,15.02
2018-05-27T02:38:18.023Z,15.07
2018-05-27T02:39:17.931Z,14.92
2018-05-27T02:40:17.889Z,14.85
2018-05-27T02:41:17.838Z,14.89
2018-05-27T02:42:17.794Z,14.82
2018-05-27T02:43:17.778Z,14.89
2018-05-27T02:44:17.732Z,14.86
2018-05-27T02:45:17.664Z,14.89
2018-05-27T02:46:17.613Z,14.88
2018-05-27T02:47:17.561Z,14.86
2018-05-27T02:48:17.517Z,14.85
2018-05-27T02:49:17.496Z,14.91
2018-05-27T02:50:17.427Z,14.94
2018-05-27T02:51:17.379Z,14.89
2018-05-27T02:52:17.336Z,14.94
2018-05-27T02:53:17.286Z,14.88
2018-05-27T02:54:17.280Z,14.96
2018-05-27T02:55:17.196Z,14.96
2018-05-27T02:56:17.147Z,14.92
2018-05-27T02:57:17.136Z,15.02
2018-05-27T02:58:17.058Z,15.02
2018-05-27T02:59:17.014Z,15.07
2018-05-27T03:00:16.995Z,14.99
2018-05-27T03:01:16.929Z,15.03
2018-05-27T03:02:16.878Z,14.94
2018-05-27T03:03:16.859Z,14.86
2018-05-27T03:04:16.782Z,14.89
2018-05-27T03:05:16.741Z,14.91
2018-05-27T03:06:16.690Z,14.86
2018-05-27T03:07:16.648Z,14.92
2018-05-27T03:08:16.640Z,14.94
2018-05-27T03:09:16.563Z,14.89
2018-05-27T03:10:16.510Z,14.86
2018-05-27T03:11:16.459Z,14.85
2018-05-27T03:12:16.412Z,14.88
2018-05-27T03:13:16.393Z,14.86
2018-05-27T03:14:16.324Z,14.88
2018-05-27T03:15:16.285Z,14.84
2018-05-27T03:16:16.231Z,14.62
2018-05-27T03:17:16.183Z,14.59
2018-05-27T03:18:16.169Z,14.54
2018-05-27T03:19:16.095Z,14.54
2018-05-27T03:20:16.045Z,14.54
2018-05-27T03:21:15.998Z,14.51
2018-05-27T03:22:15.966Z,14.58
2018-05-27T03:23:15.944Z,14.53
2018-05-27T03:24:15.868Z,14.54
2018-05-27T03:25:15.814Z,14.58
2018-05-27T03:26:15.768Z,14.63
2018-05-27T03:27:15.723Z,14.55
2018-05-27T03:28:15.803Z,14.59
2018-05-27T03:29:15.634Z,14.62
2018-05-27T03:30:15.585Z,14.51
2018-05-27T03:31:15.534Z,14.54
2018-05-27T03:32:15.490Z,14.53
2018-05-27T03:33:15.476Z,14.47
2018-05-27T03:34:15.398Z,14.48
2018-05-27T03:35:15.365Z,14.48
2018-05-27T03:36:15.310Z,14.48
2018-05-27T03:37:15.260Z,14.50
2018-05-27T03:38:15.249Z,14.47
2018-05-27T03:39:15.222Z,14.48
2018-05-27T03:40:15.124Z,14.53
2018-05-27T03:41:15.074Z,14.59
2018-05-27T03:42:15.034Z,14.54
2018-05-27T03:43:14.982Z,14.51
2018-05-27T03:44:14.976Z,14.48
2018-05-27T03:45:14.891Z,14.54
2018-05-27T03:46:14.845Z,14.66
2018-05-27T03:47:14.799Z,14.69
2018-05-27T03:48:14.753Z,14.59
2018-05-27T03:49:14.744Z,14.62
2018-05-27T03:50:14.659Z,14.65
2018-05-27T03:51:14.617Z,14.82
2018-05-27T03:52:14.569Z,14.79
2018-05-27T03:53:14.520Z,14.85
2018-05-27T03:54:14.509Z,14.78
2018-05-27T03:55:14.463Z,14.81
2018-05-27T03:56:14.421Z,14.72
2018-05-27T03:57:14.339Z,14.86
2018-05-27T03:58:14.291Z,14.70
2018-05-27T03:59:14.244Z,14.84
2018-05-27T04:00:14.200Z,14.82
2018-05-27T04:01:14.185Z,14.78
2018-05-27T04:02:14.109Z,14.81
2018-05-27T04:03:14.090Z,14.79
2018-05-27T04:04:14.017Z,14.81
2018-05-27T04:05:13.966Z,14.82
2018-05-27T04:06:13.929Z,14.77
2018-05-27T04:07:13.876Z,14.63
2018-05-27T04:08:13.861Z,14.60
2018-05-27T04:09:13.792Z,14.62
2018-05-27T04:10:13.742Z,14.55
2018-05-27T04:11:13.689Z,14.60
2018-05-27T04:12:13.679Z,14.53
2018-05-27T04:13:13.602Z,14.51
2018-05-27T04:14:13.552Z,14.47
2018-05-27T04:15:13.509Z,14.48
2018-05-27T04:16:13.488Z,14.54
2018-05-27T04:17:13.421Z,14.63
2018-05-27T04:18:13.368Z,14.63
2018-05-27T04:19:13.323Z,14.62
2018-05-27T04:20:13.273Z,14.77
2018-05-27T04:21:13.274Z,14.84
2018-05-27T04:22:13.185Z,14.84
2018-05-27T04:23:13.139Z,14.79
2018-05-27T04:24:13.094Z,14.72
2018-05-27T04:25:13.083Z,14.84
2018-05-27T04:26:12.999Z,14.72
2018-05-27T04:27:12.985Z,14.78
2018-05-27T04:28:12.910Z,14.78
2018-05-27T04:29:12.858Z,14.69
2018-05-27T04:30:12.820Z,14.77
2018-05-27T04:31:12.765Z,14.68
2018-05-27T04:32:12.750Z,14.92
2018-05-27T04:33:12.674Z,14.91
2018-05-27T04:34:12.672Z,14.86
2018-05-27T04:35:12.581Z,15.04
2018-05-27T04:36:12.541Z,15.00
2018-05-27T04:37:12.489Z,15.02
2018-05-27T04:38:12.444Z,15.11
2018-05-27T04:39:12.429Z,15.15
2018-05-27T04:40:12.351Z,15.15
2018-05-27T04:41:12.308Z,15.22
2018-05-27T04:42:12.259Z,15.18
2018-05-27T04:43:12.242Z,15.14
2018-05-27T04:44:12.171Z,15.18
2018-05-27T04:45:12.151Z,15.17
2018-05-27T04:46:12.082Z,15.17
2018-05-27T04:47:12.034Z,15.06
2018-05-27T04:48:11.998Z,15.09
2018-05-27T04:49:11.939Z,15.03
2018-05-27T04:50:11.969Z,15.18
2018-05-27T04:51:11.844Z,15.14
2018-05-27T04:52:11.799Z,15.17
2018-05-27T04:53:11.754Z,15.07
2018-05-27T04:54:11.744Z,15.25
2018-05-27T04:55:11.701Z,15.29
2018-05-27T04:56:11.615Z,15.24
2018-05-27T04:57:11.568Z,15.27
2018-05-27T04:58:11.522Z,15.33
2018-05-27T04:59:11.480Z,15.37
2018-05-27T05:00:11.468Z,15.39
2018-05-27T05:01:11.416Z,15.37
2018-05-27T05:02:11.342Z,15.51
2018-05-27T05:03:11.290Z,15.43
2018-05-27T05:04:11.243Z,15.49
2018-05-27T05:05:11.236Z,15.47
2018-05-27T05:06:11.156Z,15.51
2018-05-27T05:07:11.112Z,15.52
2018-05-27T05:08:11.063Z,15.57
2018-05-27T05:09:11.051Z,15.61
2018-05-27T05:10:10.970Z,15.62
2018-05-27T05:11:10.933Z,15.73
2018-05-27T05:12:10.899Z,15.77
2018-05-27T05:13:10.842Z,15.73
2018-05-27T05:14:10.831Z,15.79
2018-05-27T05:15:10.743Z,15.82
2018-05-27T05:16:10.697Z,15.90
2018-05-27T05:17:10.685Z,15.98
2018-05-27T05:18:10.613Z,15.98
2018-05-27T05:19:10.559Z,16.01
2018-05-27T05:20:10.518Z,16.05
2018-05-27T05:21:10.467Z,16.13
2018-05-27T05:22:10.506Z,16.21
2018-05-27T05:23:10.387Z,16.10
2018-05-27T05:24:10.369Z,16.20
2018-05-27T05:25:10.290Z,16.20
2018-05-27T05:26:10.255Z,16.28
2018-05-27T05:27:10.201Z,16.31
2018-05-27T05:28:10.183Z,16.20
2018-05-27T05:29:10.114Z,16.35
2018-05-27T05:30:10.059Z,16.23
2018-05-27T05:31:10.014Z,16.41
2018-05-27T05:32:09.968Z,16.36
2018-05-27T05:33:09.956Z,16.35
2018-05-27T05:34:09.909Z,16.39
2018-05-27T05:35:09.843Z,16.41
2018-05-27T05:36:09.793Z,16.41
2018-05-27T05:37:09.749Z,16.51
2018-05-27T05:38:09.729Z,16.42
2018-05-27T05:39:09.657Z,16.49
2018-05-27T05:40:09.643Z,16.49
2018-05-27T05:41:09.571Z,16.57
2018-05-27T05:42:09.521Z,16.56
2018-05-27T05:43:09.472Z,16.54
2018-05-27T05:44:09.425Z,16.49
2018-05-27T05:45:09.419Z,16.58
2018-05-27T05:46:09.338Z,16.60
2018-05-27T05:47:09.292Z,16.61
2018-05-27T05:48:09.244Z,16.61
2018-05-27T05:49:09.214Z,16.57
2018-05-27T05:50:09.193Z,16.65
2018-05-27T05:51:09.143Z,16.68
2018-05-27T05:52:09.070Z,16.72
2018-05-27T05:53:09.024Z,16.68
2018-05-27T05:54:08.975Z,16.75
2018-05-27T05:55:08.964Z,16.74
2018-05-27T05:56:08.943Z,16.78
2018-05-27T05:57:08.839Z,16.87
2018-05-27T05:58:08.796Z,16.83
2018-05-27T05:59:08.751Z,16.86
2018-05-27T06:00:08.708Z,16.90
2018-05-27T06:01:08.717Z,17.01
2018-05-27T06:02:08.617Z,16.99
2018-05-27T06:03:08.568Z,16.96
2018-05-27T06:04:08.528Z,17.01
2018-05-27T06:05:08.479Z,17.04
2018-05-27T06:06:08.477Z,17.04
2018-05-27T06:07:08.394Z,17.11
2018-05-27T06:08:08.351Z,17.15
2018-05-27T06:09:08.304Z,17.14
2018-05-27T06:10:08.274Z,17.22
2018-05-27T06:11:08.243Z,17.22
2018-05-27T06:12:08.172Z,17.20
2018-05-27T06:13:08.123Z,17.29
2018-05-27T06:14:08.080Z,17.29
2018-05-27T06:15:08.032Z,17.38
2018-05-27T06:16:08.019Z,17.38
2018-05-27T06:17:07.943Z,17.38
2018-05-27T06:18:07.934Z,17.41
2018-05-27T06:19:07.861Z,17.42
2018-05-27T06:20:07.814Z,17.44
2018-05-27T06:21:07.763Z,17.54
2018-05-27T06:22:08.010Z,17.57
2018-05-27T06:23:07.674Z,17.52
2018-05-27T06:24:07.637Z,17.57
2018-05-27T06:25:07.594Z,17.68
2018-05-27T06:26:07.546Z,17.68
2018-05-27T06:27:07.547Z,17.70
2018-05-27T06:28:07.458Z,17.76
2018-05-27T06:29:07.408Z,17.74
2018-05-27T06:30:07.367Z,17.79
2018-05-27T06:31:07.320Z,17.80
2018-05-27T06:32:07.380Z,17.86
2018-05-27T06:33:07.231Z,17.89
2018-05-27T06:34:07.190Z,17.87
2018-05-27T06:35:07.142Z,17.90
2018-05-27T06:36:07.098Z,18.00
2018-05-27T06:37:07.088Z,18.03
2018-05-27T06:38:07.011Z,18.04
2018-05-27T06:39:06.964Z,18.05
2018-05-27T06:40:06.956Z,18.11
2018-05-27T06:41:06.877Z,18.04
2018-05-27T06:42:06.841Z,18.11
2018-05-27T06:43:06.790Z,18.20
2018-05-27T06:44:06.745Z,18.19
2018-05-27T06:45:06.732Z,18.28
2018-05-27T06:46:06.658Z,18.31
2018-05-27T06:47:06.629Z,18.37
2018-05-27T06:48:06.570Z,18.38
2018-05-27T06:49:06.526Z,18.45
2018-05-27T06:50:06.519Z,18.53
2018-05-27T06:51:06.435Z,18.44
2018-05-27T06:52:06.399Z,18.63
2018-05-27T06:53:06.355Z,18.62
2018-05-27T06:54:06.304Z,18.75
2018-05-27T06:55:06.310Z,18.77
2018-05-27T06:56:06.218Z,18.73
2018-05-27T06:57:06.189Z,18.84
2018-05-27T06:58:06.133Z,18.92
2018-05-27T06:59:06.094Z,18.89
2018-05-27T07:00:06.086Z,18.98
2018-05-27T07:01:06.005Z,18.90
2018-05-27T07:02:05.959Z,19.02
2018-05-27T07:03:05.926Z,19.00
2018-05-27T07:04:05.873Z,19.00
2018-05-27T07:05:05.859Z,19.14
2018-05-27T07:06:05.815Z,19.09
2018-05-27T07:07:05.743Z,19.14
2018-05-27T07:08:05.695Z,19.16
2018-05-27T07:09:05.652Z,19.30
2018-05-27T07:10:05.606Z,19.26
2018-05-27T07:11:05.594Z,19.27
2018-05-27T07:12:05.521Z,19.37
2018-05-27T07:13:05.478Z,19.39
2018-05-27T07:14:05.436Z,19.41
2018-05-27T07:15:05.391Z,19.49
2018-05-27T07:16:05.391Z,19.40
2018-05-27T07:17:05.372Z,19.51
2018-05-27T07:18:05.267Z,19.49
2018-05-27T07:19:05.230Z,19.45
2018-05-27T07:20:05.176Z,19.56
2018-05-27T07:21:05.164Z,19.58
2018-05-27T07:22:05.091Z,19.56
2018-05-27T07:23:05.044Z,19.73
2018-05-27T07:24:05.041Z,19.71
2018-05-27T07:25:04.966Z,19.71
2018-05-27T07:26:04.919Z,19.69
2018-05-27T07:27:04.877Z,19.74
2018-05-27T07:28:04.860Z,19.79
2018-05-27T07:29:04.823Z,19.71
2018-05-27T07:30:04.747Z,19.74
2018-05-27T07:31:04.701Z,19.86
2018-05-27T07:32:04.668Z,19.86
2018-05-27T07:33:04.616Z,19.92
2018-05-27T07:34:04.605Z,20.03
2018-05-27T07:35:04.535Z,20.11
2018-05-27T07:36:04.494Z,20.16
2018-05-27T07:37:04.443Z,20.22
2018-05-27T07:38:04.404Z,20.19
2018-05-27T07:39:04.392Z,20.34
2018-05-27T07:40:04.349Z,20.36
2018-05-27T07:41:04.273Z,20.37
2018-05-27T07:42:04.237Z,20.47
2018-05-27T07:43:04.187Z,20.44
2018-05-27T07:44:04.176Z,20.51
2018-05-27T07:45:04.137Z,20.44
2018-05-27T07:46:04.066Z,20.51
2018-05-27T07:47:04.023Z,20.50
2018-05-27T07:48:03.981Z,20.50
2018-05-27T07:49:03.965Z,20.58
2018-05-27T07:50:03.891Z,20.58
2018-05-27T07:51:03.855Z,20.72
2018-05-27T07:52:03.806Z,20.80
2018-05-27T07:53:03.764Z,20.87
2018-05-27T07:54:03.756Z,20.96
2018-05-27T07:55:03.678Z,21.02
2018-05-27T07:56:03.669Z,21.15
2018-05-27T07:57:03.638Z,21.15
2018-05-27T07:58:03.553Z,21.24
2018-05-27T07:59:03.517Z,21.39
2018-05-27T08:00:03.503Z,21.45
2018-05-27T08:01:03.424Z,21.42
2018-05-27T08:02:03.388Z,21.46
2018-05-27T08:03:03.372Z,21.50
2018-05-27T08:04:03.301Z,21.66
2018-05-27T08:05:03.257Z,21.70
2018-05-27T08:06:03.257Z,21.79
2018-05-27T08:07:03.205Z,21.95
2018-05-27T08:08:03.140Z,22.02
2018-05-27T08:09:03.092Z,22.15
2018-05-27T08:10:03.052Z,22.28
2018-05-27T08:11:03.048Z,22.32
2018-05-27T08:12:02.969Z,22.50
2018-05-27T08:13:02.926Z,22.62
2018-05-27T08:14:02.890Z,22.55
2018-05-27T08:15:02.845Z,22.68
2018-05-27T08:16:02.840Z,22.80
2018-05-27T08:17:02.760Z,22.90
2018-05-27T08:18:02.727Z,23.05
2018-05-27T08:19:02.678Z,23.13
2018-05-27T08:20:02.672Z,23.21
2018-05-27T08:21:02.634Z,23.32
2018-05-27T08:22:02.589Z,23.50
2018-05-27T08:23:02.512Z,23.63
2018-05-27T08:24:02.494Z,23.80
2018-05-27T08:25:02.449Z,23.83
2018-05-27T08:26:02.394Z,24.10
2018-05-27T08:27:02.393Z,24.17
2018-05-27T08:28:02.312Z,24.29
2018-05-27T08:29:02.279Z,24.38
2018-05-27T08:30:02.236Z,24.61
2018-05-27T08:31:02.189Z,24.86
2018-05-27T08:32:02.182Z,24.86
2018-05-27T08:33:02.110Z,24.86
2018-05-27T08:34:02.132Z,24.85
2018-05-27T08:35:02.037Z,24.92
2018-05-27T08:36:01.988Z,24.86
2018-05-27T08:37:01.948Z,24.81
2018-05-27T08:38:01.907Z,24.76
2018-05-27T08:39:01.897Z,24.73
2018-05-27T08:40:01.832Z,24.66
2018-05-27T08:41:01.787Z,24.63
2018-05-27T08:42:01.752Z,24.57
2018-05-27T08:43:01.740Z,24.54
2018-05-27T08:44:01.668Z,24.54
2018-05-27T08:45:01.637Z,24.45
2018-05-27T08:46:01.619Z,24.43
2018-05-27T08:47:01.545Z,24.47
2018-05-27T08:48:01.507Z,24.38
2018-05-27T08:49:01.500Z,24.39
2018-05-27T08:50:01.457Z,24.39
2018-05-27T08:51:01.386Z,24.35
2018-05-27T08:52:01.343Z,24.32
2018-05-27T08:53:01.309Z,24.38
2018-05-27T08:54:01.267Z,24.45
2018-05-27T08:55:01.259Z,24.50
2018-05-27T08:56:01.190Z,24.53
2018-05-27T08:57:01.159Z,24.57
2018-05-27T08:58:01.109Z,24.74
2018-05-27T08:59:01.097Z,24.86
2018-05-27T09:00:01.026Z,24.91
2018-05-27T09:01:00.991Z,24.98
2018-05-27T09:02:00.953Z,24.98
2018-05-27T09:03:00.906Z,25.03
2018-05-27T09:04:00.899Z,24.99
2018-05-27T09:05:00.826Z,25.03
2018-05-27T09:06:00.789Z,25.01
2018-05-27T09:07:00.749Z,24.96
2018-05-27T09:08:00.717Z,24.93
2018-05-27T09:09:00.778Z,24.89
2018-05-27T09:10:00.660Z,24.95
2018-05-27T09:11:00.620Z,24.93
2018-05-27T09:12:00.553Z,24.92
2018-05-27T09:13:00.515Z,24.98
2018-05-27T09:14:00.477Z,24.93
2018-05-27T09:15:00.428Z,25.01
2018-05-27T09:16:00.433Z,24.99
2018-05-27T09:17:00.355Z,24.96
2018-05-27T09:18:00.312Z,25.01
2018-05-27T09:19:00.274Z,25.06
2018-05-27T09:20:00.237Z,25.03
2018-05-27T09:21:00.226Z,25.10
2018-05-27T09:22:00.162Z,25.13
2018-05-27T09:23:00.114Z,25.18
2018-05-27T09:24:00.079Z,25.11
2018-05-27T09:25:00.090Z,25.06
2018-05-27T09:25:59.995Z,24.99
2018-05-27T09:26:59.956Z,24.96
2018-05-27T09:27:59.926Z,25.11
2018-05-27T09:28:59.876Z,25.03
2018-05-27T09:29:59.870Z,24.93
2018-05-27T09:30:59.795Z,24.96
2018-05-27T09:31:59.776Z,25.29
2018-05-27T09:32:59.721Z,25.53
2018-05-27T09:33:59.683Z,25.58
2018-05-27T09:34:59.669Z,25.51
2018-05-27T09:35:59.638Z,25.59
2018-05-27T09:36:59.564Z,25.59
2018-05-27T09:37:59.523Z,25.59
2018-05-27T09:38:59.498Z,25.78
2018-05-27T09:39:59.446Z,25.80
2018-05-27T09:40:59.437Z,25.78
2018-05-27T09:41:59.363Z,25.73
2018-05-27T09:42:59.327Z,25.72
2018-05-27T09:43:59.288Z,25.75
2018-05-27T09:44:59.284Z,25.68
2018-05-27T09:45:59.240Z,25.69
2018-05-27T09:46:59.170Z,25.70
2018-05-27T09:47:59.133Z,25.66
2018-05-27T09:48:59.094Z,25.73
2018-05-27T09:49:59.054Z,25.75
2018-05-27T09:50:59.062Z,25.78
2018-05-27T09:51:58.999Z,25.81
2018-05-27T09:52:58.936Z,25.85
2018-05-27T09:53:58.897Z,25.85
2018-05-27T09:54:58.855Z,25.87
2018-05-27T09:55:58.853Z,25.88
2018-05-27T09:56:58.786Z,25.93
2018-05-27T09:57:58.803Z,25.95
2018-05-27T09:58:58.699Z,25.95
2018-05-27T09:59:58.754Z,25.93
2018-05-27T10:00:58.657Z,25.98
2018-05-27T10:01:58.591Z,26.07
2018-05-27T10:02:58.575Z,26.31
2018-05-27T10:03:58.505Z,26.55
2018-05-27T10:04:58.467Z,26.55
2018-05-27T10:05:58.434Z,26.56
2018-05-27T10:06:58.435Z,26.52
2018-05-27T10:07:58.350Z,26.60
2018-05-27T10:08:58.329Z,26.52
2018-05-27T10:09:58.274Z,26.44
2018-05-27T10:10:58.259Z,26.44
2018-05-27T10:11:58.246Z,26.41
2018-05-27T10:12:58.157Z,26.41
2018-05-27T10:13:58.117Z,26.40
2018-05-27T10:14:58.083Z,26.37
2018-05-27T10:15:58.043Z,26.36
2018-05-27T10:16:58.037Z,26.34
2018-05-27T10:17:57.974Z,26.47
2018-05-27T10:18:57.954Z,26.77
2018-05-27T10:19:57.894Z,27.02
2018-05-27T10:20:57.848Z,26.93
2018-05-27T10:21:57.816Z,27.21
2018-05-27T10:22:57.812Z,27.36
2018-05-27T10:23:57.737Z,27.37
2018-05-27T10:24:57.718Z,27.33
2018-05-27T10:25:57.690Z,27.32
2018-05-27T10:26:57.621Z,27.26
2018-05-27T10:27:57.613Z,27.29
2018-05-27T10:28:57.544Z,27.44
2018-05-27T10:29:57.547Z,27.68
2018-05-27T10:30:57.472Z,27.93
2018-05-27T10:31:57.428Z,28.15
2018-05-27T10:32:57.389Z,28.23
2018-05-27T10:33:57.357Z,28.12
2018-05-27T10:34:57.348Z,27.89
2018-05-27T10:35:57.274Z,27.58
2018-05-27T10:36:57.235Z,27.78
2018-05-27T10:37:57.212Z,28.00
2018-05-27T10:38:57.194Z,28.26
2018-05-27T10:39:57.127Z,28.14
2018-05-27T10:40:57.086Z,28.22
2018-05-27T10:41:57.089Z,28.52
2018-05-27T10:42:57.012Z,28.57
2018-05-27T10:43:56.973Z,28.51
2018-05-27T10:44:56.938Z,28.48
2018-05-27T10:45:56.899Z,28.66
2018-05-27T10:46:56.895Z,28.70
2018-05-27T10:47:56.826Z,28.49
2018-05-27T10:48:56.826Z,28.57
2018-05-27T10:49:56.782Z,28.29
2018-05-27T10:50:56.712Z,27.98
2018-05-27T10:51:56.706Z,27.86
2018-05-27T10:52:56.677Z,27.96
2018-05-27T10:53:56.606Z,28.07
2018-05-27T10:54:56.563Z,28.19
2018-05-27T10:55:56.530Z,28.23
2018-05-27T10:56:56.488Z,28.14
2018-05-27T10:57:56.500Z,28.29
2018-05-27T10:58:56.423Z,28.39
2018-05-27T10:59:56.386Z,28.47
2018-05-27T11:00:56.346Z,28.29
2018-05-27T11:01:56.306Z,27.93
2018-05-27T11:02:56.299Z,27.90
2018-05-27T11:03:56.234Z,27.73
2018-05-27T11:04:56.209Z,27.77
2018-05-27T11:05:56.201Z,27.47
2018-05-27T11:06:56.121Z,27.21
2018-05-27T11:07:56.122Z,26.70
2018-05-27T11:08:56.057Z,26.65
2018-05-27T11:09:56.011Z,26.60
2018-05-27T11:10:55.970Z,26.80
2018-05-27T11:11:55.937Z,26.96
2018-05-27T11:12:55.944Z,26.96
2018-05-27T11:13:55.859Z,27.15
2018-05-27T11:14:55.822Z,27.33
2018-05-27T11:15:55.782Z,27.63
2018-05-27T11:16:55.744Z,27.98
2018-05-27T11:17:55.739Z,28.23
2018-05-27T11:18:55.698Z,27.98
2018-05-27T11:19:55.635Z,27.68
2018-05-27T11:20:55.592Z,27.47
2018-05-27T11:21:55.559Z,27.65
2018-05-27T11:22:55.571Z,27.92
2018-05-27T11:23:55.487Z,27.82
2018-05-27T11:24:55.446Z,27.82
2018-05-27T11:25:55.413Z,27.82
2018-05-27T11:26:55.384Z,27.85
2018-05-27T11:27:55.369Z,27.96
2018-05-27T11:28:55.303Z,28.29
2018-05-27T11:29:55.317Z,28.11
2018-05-27T11:30:55.254Z,28.25
2018-05-27T11:31:55.190Z,28.47
2018-05-27T11:32:55.152Z,28.48
2018-05-27T11:33:55.107Z,28.45
2018-05-27T11:34:55.073Z,28.32
2018-05-27T11:35:55.071Z,28.07
2018-05-27T11:36:55.039Z,27.92
2018-05-27T11:37:55.002Z,27.96
2018-05-27T11:38:54.922Z,28.05
2018-05-27T11:39:54.887Z,28.07
2018-05-27T11:40:54.856Z,28.11
2018-05-27T11:41:54.815Z,28.15
2018-05-27T11:42:54.817Z,28.22
2018-05-27T11:43:54.744Z,28.26
2018-05-27T11:44:54.706Z,27.95
2018-05-27T11:45:54.668Z,27.74
2018-05-27T11:46:54.629Z,27.67
2018-05-27T11:47:54.624Z,27.68
2018-05-27T11:48:54.557Z,27.39
2018-05-27T11:49:54.558Z,27.36
2018-05-27T11:50:54.498Z,27.63
2018-05-27T11:51:54.446Z,28.00
2018-05-27T11:52:54.406Z,28.14
2018-05-27T11:53:54.369Z,28.45
2018-05-27T11:54:54.362Z,28.45
2018-05-27T11:55:54.327Z,28.56
2018-05-27T11:56:54.261Z,28.91
2018-05-27T11:57:54.234Z,28.86
2018-05-27T11:58:54.216Z,28.76
2018-05-27T11:59:54.146Z,28.82
2018-05-27T12:00:54.121Z,28.91
2018-05-27T12:01:54.105Z,28.85
2018-05-27T12:02:54.037Z,29.05
2018-05-27T12:03:54.000Z,29.26
2018-05-27T12:04:53.966Z,29.45
2018-05-27T12:05:53.927Z,29.54
2018-05-27T12:06:53.923Z,29.66
2018-05-27T12:07:53.879Z,29.78
2018-05-27T12:08:53.817Z,29.71
2018-05-27T12:09:53.782Z,29.90
2018-05-27T12:10:53.747Z,29.68
2018-05-27T12:11:53.739Z,29.17
2018-05-27T12:12:53.673Z,29.31
2018-05-27T12:13:53.641Z,29.42
2018-05-27T12:14:53.604Z,29.16
2018-05-27T12:15:53.600Z,28.85
2018-05-27T12:16:53.528Z,28.82
2018-05-27T12:17:53.538Z,28.78
2018-05-27T12:18:53.456Z,28.45
2018-05-27T12:19:53.417Z,28.59
2018-05-27T12:20:53.380Z,28.78
2018-05-27T12:21:53.342Z,28.94
2018-05-27T12:22:53.356Z,29.08
2018-05-27T12:23:53.277Z,29.14
2018-05-27T12:24:53.232Z,29.20
2018-05-27T12:25:53.196Z,29.45
2018-05-27T12:26:53.172Z,29.13
2018-05-27T12:27:53.161Z,29.02
2018-05-27T12:28:53.094Z,29.34
2018-05-27T12:29:53.156Z,28.85
2018-05-27T12:30:53.015Z,28.75
2018-05-27T12:31:52.979Z,29.10
2018-05-27T12:32:52.951Z,29.29
2018-05-27T12:33:52.941Z,29.41
2018-05-27T12:34:52.872Z,29.57
2018-05-27T12:35:52.875Z,29.78
2018-05-27T12:36:52.827Z,29.94
2018-05-27T12:37:52.797Z,29.69
2018-05-27T12:38:52.756Z,29.53
2018-05-27T12:39:52.689Z,29.76
2018-05-27T12:40:52.653Z,29.84
2018-05-27T12:41:52.624Z,29.90
2018-05-27T12:42:52.611Z,29.91
2018-05-27T12:43:52.585Z,29.57
2018-05-27T12:44:52.513Z,29.65
2018-05-27T12:45:52.471Z,29.79
2018-05-27T12:46:52.435Z,29.84
2018-05-27T12:47:52.407Z,29.94
2018-05-27T12:48:52.397Z,29.82
2018-05-27T12:49:52.332Z,29.87
2018-05-27T12:50:52.329Z,29.49
2018-05-27T12:51:52.260Z,29.31